Beechhurst, New York
Current Conditions -  °F | °C
As of 2:51 AM on Friday 24 Oct 2014 (Local Time) from KLGA Reporting Station
Overcast Overcast  
Wind Chill: 52°   Ceiling: 2300
Heat Index: 52°   Visibility: 10mi
Dew Point: 44°   Wind: 12mph
Humidity: 74%   Direction: 320°NW
Pressure: 29.76"   Gusts: NA
Location:  40.7862°N, 73.811°W
Report Text: KLGA 240651Z 32010KT 10SM BKN023 OVC075 11/07 A2976 RMK AO2 SLP079 T01110067
Loading
Personal Weather Stations






























Interactive Weather Map New forecast layout! Learn more

10-Day Weather Forecast

Advertisements
Track Severe Weather on mobile